createdAt,value
2017-04-28T00:00:07.356Z,8.58
2017-04-28T00:00:48.233Z,8.56
2017-04-28T00:01:29.108Z,8.56
2017-04-28T00:02:09.996Z,8.61
2017-04-28T00:02:50.869Z,8.55
2017-04-28T00:03:31.746Z,8.58
2017-04-28T00:04:12.621Z,8.63
2017-04-28T00:04:53.500Z,8.64
2017-04-28T00:05:40.728Z,8.67
2017-04-28T00:06:18.786Z,8.64
2017-04-28T00:06:59.662Z,8.63
2017-04-28T00:07:40.547Z,8.56
2017-04-28T00:08:21.421Z,8.6
2017-04-28T00:09:02.296Z,8.56
2017-04-28T00:09:43.175Z,8.61
2017-04-28T00:10:24.032Z,8.52
2017-04-28T00:11:04.909Z,8.51
2017-04-28T00:11:45.788Z,8.52
2017-04-28T00:12:26.675Z,8.48
2017-04-28T00:13:07.548Z,8.52
2017-04-28T00:13:48.426Z,8.49
2017-04-28T00:14:29.312Z,8.42
2017-04-28T00:15:10.193Z,8.49
2017-04-28T00:15:51.068Z,8.49
2017-04-28T00:16:31.958Z,8.42
2017-04-28T00:17:12.784Z,8.45
2017-04-28T00:17:53.645Z,8.33
2017-04-28T00:18:34.541Z,8.36
2017-04-28T00:19:15.383Z,8.3
2017-04-28T00:19:56.251Z,8.36
2017-04-28T00:20:37.128Z,8.36
2017-04-28T00:21:18.009Z,8.42
2017-04-28T00:21:58.879Z,8.46
2017-04-28T00:22:39.771Z,8.37
2017-04-28T00:23:20.647Z,8.31
2017-04-28T00:24:01.502Z,8.36
2017-04-28T00:24:42.388Z,8.37
2017-04-28T00:25:23.261Z,8.45
2017-04-28T00:26:04.153Z,8.41
2017-04-28T00:26:44.998Z,8.48
2017-04-28T00:27:25.876Z,8.46
2017-04-28T00:28:06.713Z,8.45
2017-04-28T00:28:47.596Z,8.33
2017-04-28T00:29:28.433Z,8.34
2017-04-28T00:30:09.352Z,8.34
2017-04-28T00:30:50.204Z,8.33
2017-04-28T00:31:31.075Z,8.44
2017-04-28T00:32:11.948Z,8.37
2017-04-28T00:32:52.818Z,8.36
2017-04-28T00:33:33.679Z,8.3
2017-04-28T00:34:14.532Z,8.23
2017-04-28T00:34:55.426Z,8.13
2017-04-28T00:35:36.260Z,8.16
2017-04-28T00:36:17.120Z,8.13
2017-04-28T00:36:58.006Z,8.2
2017-04-28T00:37:38.857Z,8.19
2017-04-28T00:38:19.721Z,8.2
2017-04-28T00:39:00.601Z,8.19
2017-04-28T00:39:41.493Z,8.24
2017-04-28T00:40:22.354Z,8.26
2017-04-28T00:41:03.228Z,8.28
2017-04-28T00:41:44.096Z,8.23
2017-04-28T00:42:25.018Z,8.23
2017-04-28T00:43:05.865Z,8.2
2017-04-28T00:43:46.733Z,8.19
2017-04-28T00:44:27.616Z,8.13
2017-04-28T00:45:08.478Z,8.2
2017-04-28T00:45:49.432Z,8.2
2017-04-28T00:46:30.303Z,8.13
2017-04-28T00:47:11.180Z,8.16
2017-04-28T00:47:52.067Z,8.26
2017-04-28T00:48:32.942Z,8.2
2017-04-28T00:49:13.824Z,8.1
2017-04-28T00:49:54.705Z,8.18
2017-04-28T00:50:35.561Z,8.13
2017-04-28T00:51:16.413Z,8.24
2017-04-28T00:51:57.267Z,8.16
2017-04-28T00:52:38.160Z,8.19
2017-04-28T00:53:19.033Z,8.2
2017-04-28T00:53:59.895Z,8.13
2017-04-28T00:54:40.773Z,8.15
2017-04-28T00:55:21.643Z,8.13
2017-04-28T00:56:02.521Z,8.16
2017-04-28T00:56:43.381Z,8.13
2017-04-28T00:57:24.248Z,8.2
2017-04-28T00:58:05.127Z,8.2
2017-04-28T00:58:46.018Z,8.16
2017-04-28T00:59:26.935Z,8.2
2017-04-28T01:00:07.783Z,8.13
2017-04-28T01:00:48.649Z,8.12
2017-04-28T01:01:29.518Z,8.08
2017-04-28T01:02:10.397Z,8.03
2017-04-28T01:02:51.248Z,8.12
2017-04-28T01:03:32.145Z,8.26
2017-04-28T01:04:13.020Z,8.28
2017-04-28T01:04:53.875Z,8.23
2017-04-28T01:05:34.746Z,8.24
2017-04-28T01:06:15.609Z,8.27
2017-04-28T01:06:56.482Z,8.23
2017-04-28T01:07:37.371Z,8.26
2017-04-28T01:08:18.247Z,8.13
2017-04-28T01:08:59.163Z,8.19
2017-04-28T01:09:40.055Z,8.16
2017-04-28T01:10:20.925Z,8.12
2017-04-28T01:11:01.792Z,8.09
2017-04-28T01:11:42.661Z,8.06
2017-04-28T01:12:23.558Z,8.03
2017-04-28T01:13:04.452Z,7.98
2017-04-28T01:13:45.318Z,7.94
2017-04-28T01:14:26.191Z,8
2017-04-28T01:15:07.066Z,8.03
2017-04-28T01:15:47.954Z,8.03
2017-04-28T01:16:28.827Z,8.12
2017-04-28T01:17:09.680Z,8.1
2017-04-28T01:17:50.553Z,8.08
2017-04-28T01:18:31.425Z,8.03
2017-04-28T01:19:12.312Z,7.97
2017-04-28T01:19:53.171Z,7.95
2017-04-28T01:20:34.059Z,7.98
2017-04-28T01:21:14.933Z,8.01
2017-04-28T01:21:55.829Z,8
2017-04-28T01:22:36.693Z,7.83
2017-04-28T01:23:17.569Z,7.87
2017-04-28T01:23:58.453Z,7.91
2017-04-28T01:24:39.322Z,7.95
2017-04-28T01:25:20.223Z,7.93
2017-04-28T01:26:01.104Z,7.9
2017-04-28T01:26:42.021Z,7.9
2017-04-28T01:27:22.900Z,7.97
2017-04-28T01:28:03.771Z,7.88
2017-04-28T01:28:44.664Z,8
2017-04-28T01:29:27.384Z,7.82
2017-04-28T01:30:07.145Z,7.88
2017-04-28T01:30:48.025Z,7.79
2017-04-28T01:31:28.924Z,7.87
2017-04-28T01:32:09.805Z,7.88
2017-04-28T01:32:50.671Z,7.85
2017-04-28T01:33:31.555Z,7.67
2017-04-28T01:34:12.445Z,7.56
2017-04-28T01:34:53.312Z,7.6
2017-04-28T01:35:34.178Z,7.56
2017-04-28T01:36:15.065Z,7.7
2017-04-28T01:36:55.923Z,7.61
2017-04-28T01:37:36.809Z,7.56
2017-04-28T01:38:17.672Z,7.51
2017-04-28T01:38:58.546Z,7.48
2017-04-28T01:39:39.432Z,7.48
2017-04-28T01:40:20.314Z,7.56
2017-04-28T01:41:01.212Z,7.53
2017-04-28T01:41:42.097Z,7.47
2017-04-28T01:42:22.978Z,7.45
2017-04-28T01:43:03.856Z,7.42
2017-04-28T01:43:44.723Z,7.43
2017-04-28T01:44:25.610Z,7.45
2017-04-28T01:45:06.500Z,7.38
2017-04-28T01:46:24.346Z,7.61
2017-04-28T01:47:05.222Z,7.66
2017-04-28T01:47:46.200Z,7.73
2017-04-28T01:48:27.077Z,7.69
2017-04-28T01:49:07.969Z,7.75
2017-04-28T01:49:48.845Z,7.72
2017-04-28T01:50:30.609Z,7.69
2017-04-28T01:51:10.683Z,7.83
2017-04-28T01:51:51.563Z,7.79
2017-04-28T01:52:32.437Z,7.79
2017-04-28T01:53:13.309Z,7.8
2017-04-28T01:53:54.224Z,7.82
2017-04-28T01:54:35.062Z,7.79
2017-04-28T01:55:15.934Z,7.79
2017-04-28T01:55:56.802Z,7.79
2017-04-28T01:56:37.687Z,7.72
2017-04-28T01:57:18.567Z,7.79
2017-04-28T01:57:59.433Z,7.56
2017-04-28T01:58:40.300Z,7.66
2017-04-28T01:59:21.525Z,7.67
2017-04-28T02:00:02.088Z,7.61
2017-04-28T02:00:42.963Z,7.7
2017-04-28T02:01:23.833Z,7.72
2017-04-28T02:02:04.717Z,7.56
2017-04-28T02:02:45.609Z,7.67
2017-04-28T02:03:26.499Z,7.57
2017-04-28T02:04:07.391Z,7.66
2017-04-28T02:04:48.261Z,7.67
2017-04-28T02:05:29.159Z,7.8
2017-04-28T02:06:10.027Z,7.69
2017-04-28T02:06:50.904Z,7.75
2017-04-28T02:07:31.800Z,7.76
2017-04-28T02:08:12.675Z,7.76
2017-04-28T02:08:53.538Z,7.69
2017-04-28T02:09:34.403Z,7.67
2017-04-28T02:10:15.264Z,7.57
2017-04-28T02:10:56.133Z,7.72
2017-04-28T02:11:37.005Z,7.69
2017-04-28T02:12:17.874Z,7.61
2017-04-28T02:12:58.750Z,7.73
2017-04-28T02:13:39.637Z,7.8
2017-04-28T02:14:20.507Z,7.73
2017-04-28T02:15:01.379Z,7.69
2017-04-28T02:15:42.234Z,7.69
2017-04-28T02:16:23.091Z,7.61
2017-04-28T02:17:03.970Z,7.57
2017-04-28T02:17:44.843Z,7.67
2017-04-28T02:18:25.724Z,7.72
2017-04-28T02:19:06.609Z,7.67
2017-04-28T02:19:47.487Z,7.7
2017-04-28T02:20:28.371Z,7.67
2017-04-28T02:21:09.210Z,7.69
2017-04-28T02:21:50.082Z,7.57
2017-04-28T02:22:30.956Z,7.66
2017-04-28T02:23:11.810Z,7.56
2017-04-28T02:23:52.691Z,7.56
2017-04-28T02:24:33.575Z,7.7
2017-04-28T02:25:14.455Z,7.66
2017-04-28T02:25:55.313Z,7.77
2017-04-28T02:26:36.170Z,7.56
2017-04-28T02:27:17.043Z,7.63
2017-04-28T02:27:57.924Z,7.66
2017-04-28T02:28:38.798Z,7.67
2017-04-28T02:29:19.663Z,7.58
2017-04-28T02:30:00.564Z,7.6
2017-04-28T02:30:41.430Z,7.66
2017-04-28T02:31:22.313Z,7.54
2017-04-28T02:32:03.183Z,7.75
2017-04-28T02:32:44.056Z,7.66
2017-04-28T02:33:24.921Z,7.48
2017-04-28T02:34:05.805Z,7.51
2017-04-28T02:34:46.661Z,7.54
2017-04-28T02:35:27.517Z,7.66
2017-04-28T02:36:08.375Z,7.69
2017-04-28T02:36:49.223Z,7.61
2017-04-28T02:37:30.095Z,7.66
2017-04-28T02:38:10.968Z,7.67
2017-04-28T02:38:51.883Z,7.63
2017-04-28T02:39:32.744Z,7.66
2017-04-28T02:40:13.626Z,7.61
2017-04-28T02:40:54.514Z,7.72
2017-04-28T02:41:35.361Z,7.66
2017-04-28T02:42:16.235Z,7.48
2017-04-28T02:42:57.108Z,7.5
2017-04-28T02:43:38.031Z,7.53
2017-04-28T02:44:18.901Z,7.48
2017-04-28T02:44:59.753Z,7.48
2017-04-28T02:45:40.610Z,7.47
2017-04-28T02:46:21.485Z,7.39
2017-04-28T02:47:02.343Z,7.48
2017-04-28T02:47:43.219Z,7.35
2017-04-28T02:48:24.099Z,7.43
2017-04-28T02:49:04.987Z,7.42
2017-04-28T02:49:45.858Z,7.4
2017-04-28T02:50:26.751Z,7.45
2017-04-28T02:51:07.633Z,7.42
2017-04-28T02:51:48.505Z,7.33
2017-04-28T02:52:29.372Z,7.31
2017-04-28T02:53:10.266Z,7.28
2017-04-28T02:53:51.121Z,7.21
2017-04-28T02:54:31.967Z,7.28
2017-04-28T02:55:12.823Z,7.4
2017-04-28T02:55:53.689Z,7.35
2017-04-28T02:56:34.548Z,7.33
2017-04-28T02:57:15.419Z,7.31
2017-04-28T02:57:56.316Z,7.42
2017-04-28T02:58:37.205Z,7.38
2017-04-28T02:59:18.074Z,7.42
2017-04-28T02:59:58.951Z,7.29
2017-04-28T03:00:39.809Z,7.28
2017-04-28T03:01:20.704Z,7.31
2017-04-28T03:02:01.567Z,7.31
2017-04-28T03:02:42.449Z,7.18
2017-04-28T03:03:23.310Z,7.18
2017-04-28T03:04:04.225Z,7.29
2017-04-28T03:04:45.093Z,7.17
2017-04-28T03:05:25.968Z,7.25
2017-04-28T03:06:06.839Z,7.29
2017-04-28T03:06:47.716Z,7.31
2017-04-28T03:07:28.587Z,7.21
2017-04-28T03:08:09.460Z,7.18
2017-04-28T03:08:50.341Z,7.23
2017-04-28T03:09:31.220Z,7.31
2017-04-28T03:10:12.104Z,7.31
2017-04-28T03:10:52.978Z,7.28
2017-04-28T03:11:33.855Z,7.18
2017-04-28T03:12:14.741Z,7.2
2017-04-28T03:12:55.620Z,7.2
2017-04-28T03:13:36.498Z,7.28
2017-04-28T03:14:17.368Z,7.23
2017-04-28T03:14:58.241Z,7.23
2017-04-28T03:15:39.111Z,7.03
2017-04-28T03:16:19.988Z,7.02
2017-04-28T03:17:00.872Z,7.05
2017-04-28T03:17:41.758Z,7.07
2017-04-28T03:18:22.634Z,7.02
2017-04-28T03:19:03.529Z,7.03
2017-04-28T03:19:44.417Z,7.14
2017-04-28T03:20:25.290Z,7.06
2017-04-28T03:21:06.167Z,7.03
2017-04-28T03:21:47.062Z,7.06
2017-04-28T03:22:27.977Z,7.1
2017-04-28T03:23:08.851Z,7.02
2017-04-28T03:23:49.722Z,7.1
2017-04-28T03:24:30.612Z,6.96
2017-04-28T03:25:11.468Z,6.84
2017-04-28T03:25:52.372Z,6.89
2017-04-28T03:26:33.318Z,6.92
2017-04-28T03:27:14.196Z,7.05
2017-04-28T03:27:55.066Z,6.99
2017-04-28T03:28:35.931Z,6.78
2017-04-28T03:29:16.812Z,6.75
2017-04-28T03:29:57.682Z,6.82
2017-04-28T03:30:38.541Z,6.87
2017-04-28T03:31:19.407Z,6.87
2017-04-28T03:32:00.286Z,6.89
2017-04-28T03:32:41.196Z,6.96
2017-04-28T03:33:22.083Z,6.88
2017-04-28T03:34:02.956Z,6.88
2017-04-28T03:34:43.829Z,6.84
2017-04-28T03:35:24.703Z,6.89
2017-04-28T03:36:05.585Z,6.88
2017-04-28T03:36:46.473Z,6.79
2017-04-28T03:37:27.350Z,6.77
2017-04-28T03:38:08.228Z,6.74
2017-04-28T03:38:49.092Z,6.77
2017-04-28T03:39:29.973Z,6.7
2017-04-28T03:40:10.852Z,6.85
2017-04-28T03:40:51.723Z,6.75
2017-04-28T03:41:32.591Z,6.78
2017-04-28T03:42:13.464Z,6.7
2017-04-28T03:42:54.308Z,6.72
2017-04-28T03:43:35.170Z,6.62
2017-04-28T03:44:16.042Z,6.51
2017-04-28T03:44:56.922Z,6.46
2017-04-28T03:45:37.799Z,6.42
2017-04-28T03:46:18.719Z,6.48
2017-04-28T03:46:59.588Z,6.67
2017-04-28T03:47:40.478Z,6.57
2017-04-28T03:48:21.350Z,6.63
2017-04-28T03:49:02.238Z,6.44
2017-04-28T03:49:43.112Z,6.48
2017-04-28T03:50:23.988Z,6.62
2017-04-28T03:51:04.859Z,6.6
2017-04-28T03:51:45.736Z,6.56
2017-04-28T03:52:26.612Z,6.49
2017-04-28T03:53:07.483Z,6.54
2017-04-28T03:53:48.352Z,6.52
2017-04-28T03:54:29.223Z,6.59
2017-04-28T03:55:10.102Z,6.62
2017-04-28T03:55:50.989Z,6.64
2017-04-28T03:56:31.869Z,6.72
2017-04-28T03:57:12.740Z,6.7
2017-04-28T03:57:53.623Z,6.7
2017-04-28T03:58:34.496Z,6.72
2017-04-28T03:59:15.378Z,6.7
2017-04-28T03:59:56.251Z,6.69
2017-04-28T04:00:37.121Z,6.63
2017-04-28T04:01:17.992Z,6.41
2017-04-28T04:01:58.861Z,6.49
2017-04-28T04:02:39.743Z,6.52
2017-04-28T04:03:20.617Z,6.52
2017-04-28T04:04:01.487Z,6.67
2017-04-28T04:04:42.363Z,6.64
2017-04-28T04:05:23.222Z,6.63
2017-04-28T04:06:04.086Z,6.56
2017-04-28T04:06:44.970Z,6.56
2017-04-28T04:07:25.855Z,6.56
2017-04-28T04:08:06.730Z,6.52
2017-04-28T04:10:00.317Z,6.38
2017-04-28T04:10:41.179Z,6.52
2017-04-28T04:11:22.076Z,6.42
2017-04-28T04:12:02.943Z,6.49
2017-04-28T04:12:43.820Z,6.44
2017-04-28T04:13:24.714Z,6.45
2017-04-28T04:14:05.542Z,6.45
2017-04-28T04:14:46.410Z,6.39
2017-04-28T04:15:27.279Z,6.39
2017-04-28T04:16:08.184Z,6.36
2017-04-28T04:16:49.036Z,6.45
2017-04-28T04:17:29.909Z,6.52
2017-04-28T04:18:10.770Z,6.44
2017-04-28T04:18:51.644Z,6.54
2017-04-28T04:19:32.504Z,6.57
2017-04-28T04:20:13.389Z,6.49
2017-04-28T04:20:54.255Z,6.63
2017-04-28T04:21:35.129Z,6.64
2017-04-28T04:22:15.953Z,6.57
2017-04-28T04:22:56.826Z,6.42
2017-04-28T04:23:37.709Z,6.42
2017-04-28T04:24:18.676Z,6.51
2017-04-28T04:24:59.518Z,6.42
2017-04-28T04:25:40.375Z,6.44
2017-04-28T04:26:21.245Z,6.42
2017-04-28T04:27:02.118Z,6.44
2017-04-28T04:27:43.024Z,6.33
2017-04-28T04:28:23.867Z,6.36
2017-04-28T04:29:04.769Z,6.39
2017-04-28T04:29:45.653Z,6.42
2017-04-28T04:30:26.517Z,6.31
2017-04-28T04:31:07.395Z,6.31
2017-04-28T04:31:48.254Z,6.39
2017-04-28T04:32:29.117Z,6.51
2017-04-28T04:33:10.020Z,6.54
2017-04-28T04:33:50.898Z,6.57
2017-04-28T04:34:31.759Z,6.52
2017-04-28T04:35:12.636Z,6.44
2017-04-28T04:35:53.519Z,6.36
2017-04-28T04:36:34.382Z,6.45
2017-04-28T04:37:15.286Z,6.44
2017-04-28T04:37:56.168Z,6.49
2017-04-28T04:38:37.082Z,6.42
2017-04-28T04:39:17.934Z,6.42
2017-04-28T04:39:58.871Z,6.42
2017-04-28T04:40:39.758Z,6.6
2017-04-28T04:41:20.622Z,6.54
2017-04-28T04:42:01.496Z,6.56
2017-04-28T04:42:42.358Z,6.54
2017-04-28T04:43:23.231Z,6.59
2017-04-28T04:44:04.132Z,6.57
2017-04-28T04:44:44.996Z,6.6
2017-04-28T04:45:25.897Z,6.52
2017-04-28T04:46:06.751Z,6.57
2017-04-28T04:46:47.621Z,6.57
2017-04-28T04:47:28.510Z,6.63
2017-04-28T04:48:09.371Z,6.54
2017-04-28T04:48:50.244Z,6.59
2017-04-28T04:49:31.097Z,6.64
2017-04-28T04:50:11.958Z,6.7
2017-04-28T04:50:52.837Z,6.7
2017-04-28T04:51:33.692Z,6.63
2017-04-28T04:52:14.563Z,6.64
2017-04-28T04:52:55.456Z,6.74
2017-04-28T04:53:36.331Z,6.72
2017-04-28T04:54:17.207Z,6.75
2017-04-28T04:54:58.061Z,6.64
2017-04-28T04:55:38.933Z,6.51
2017-04-28T04:56:19.832Z,6.54
2017-04-28T04:57:00.701Z,6.52
2017-04-28T04:57:41.613Z,6.63
2017-04-28T04:58:22.448Z,6.51
2017-04-28T04:59:03.314Z,6.59
2017-04-28T04:59:44.181Z,6.57
2017-04-28T05:00:25.070Z,6.64
2017-04-28T05:01:05.940Z,6.62
2017-04-28T05:01:47.404Z,6.51
2017-04-28T05:02:28.281Z,6.54
2017-04-28T05:03:09.147Z,6.6
2017-04-28T05:03:50.015Z,6.64
2017-04-28T05:04:30.887Z,6.63
2017-04-28T05:05:11.764Z,6.67
2017-04-28T05:05:52.673Z,6.77
2017-04-28T05:06:33.541Z,6.72
2017-04-28T05:07:14.410Z,6.77
2017-04-28T05:07:57.041Z,6.78
2017-04-28T05:08:37.922Z,6.82
2017-04-28T05:09:18.805Z,6.81
2017-04-28T05:09:59.681Z,6.88
2017-04-28T05:10:40.586Z,6.96
2017-04-28T05:11:21.471Z,6.92
2017-04-28T05:12:02.355Z,6.99
2017-04-28T05:12:43.230Z,7.02
2017-04-28T05:13:24.912Z,6.89
2017-04-28T05:14:05.764Z,6.77
2017-04-28T05:14:46.644Z,6.7
2017-04-28T05:15:27.509Z,6.7
2017-04-28T05:16:08.368Z,6.7
2017-04-28T05:16:49.253Z,6.67
2017-04-28T05:17:30.146Z,6.75
2017-04-28T05:18:11.013Z,6.77
2017-04-28T05:18:51.871Z,6.82
2017-04-28T05:19:32.749Z,6.89
2017-04-28T05:20:13.629Z,6.96
2017-04-28T05:20:54.503Z,7.05
2017-04-28T05:21:35.376Z,6.96
2017-04-28T05:22:16.292Z,6.95
2017-04-28T05:22:57.173Z,7.03
2017-04-28T05:23:38.052Z,7.02
2017-04-28T05:24:18.928Z,7.03
2017-04-28T05:24:59.786Z,7.02
2017-04-28T05:25:40.639Z,7.02
2017-04-28T05:26:21.519Z,7.11
2017-04-28T05:27:02.378Z,7.11
2017-04-28T05:27:43.240Z,6.97
2017-04-28T05:28:24.111Z,7.06
2017-04-28T05:29:04.999Z,7.03
2017-04-28T05:29:45.890Z,7.03
2017-04-28T05:30:26.764Z,7.07
2017-04-28T05:31:07.746Z,7.1
2017-04-28T05:31:48.586Z,7.02
2017-04-28T05:32:29.482Z,7.07
2017-04-28T05:33:10.357Z,7
2017-04-28T05:33:51.229Z,7.06
2017-04-28T05:34:32.252Z,7.18
2017-04-28T05:35:13.137Z,7.17
2017-04-28T05:35:54.007Z,7.17
2017-04-28T05:36:34.866Z,7.21
2017-04-28T05:37:15.750Z,7.23
2017-04-28T05:37:56.625Z,7.23
2017-04-28T05:38:37.497Z,7.25
2017-04-28T05:39:18.383Z,7.18
2017-04-28T05:39:59.229Z,7.2
2017-04-28T05:40:40.106Z,7.23
2017-04-28T05:41:20.970Z,7.29
2017-04-28T05:42:01.839Z,7.31
2017-04-28T05:42:42.703Z,7.29
2017-04-28T05:43:23.583Z,7.35
2017-04-28T05:44:04.441Z,7.4
2017-04-28T05:44:45.331Z,7.33
2017-04-28T05:45:26.221Z,7.43
2017-04-28T05:46:07.100Z,7.42
2017-04-28T05:46:49.703Z,7.33
2017-04-28T05:47:30.568Z,7.28
2017-04-28T05:48:11.414Z,7.38
2017-04-28T05:48:52.270Z,7.42
2017-04-28T05:49:33.235Z,7.43
2017-04-28T05:50:14.142Z,7.5
2017-04-28T05:53:25.400Z,7.69
2017-04-28T05:54:06.246Z,7.69
2017-04-28T05:54:47.113Z,7.7
2017-04-28T05:55:28.005Z,7.67
2017-04-28T05:56:08.885Z,7.75
2017-04-28T05:56:49.773Z,7.83
2017-04-28T05:57:30.647Z,7.75
2017-04-28T05:58:11.532Z,7.76
2017-04-28T05:58:52.406Z,7.77
2017-04-28T05:59:33.285Z,7.88
2017-04-28T06:00:14.169Z,7.93
2017-04-28T06:00:55.046Z,7.98
2017-04-28T06:01:35.997Z,8.06
2017-04-28T06:02:16.873Z,8.03
2017-04-28T06:02:57.756Z,8.06
2017-04-28T06:03:38.644Z,8.06
2017-04-28T06:04:19.523Z,8.03
2017-04-28T06:05:00.395Z,8.09
2017-04-28T06:05:41.298Z,8.13
2017-04-28T06:06:22.161Z,8.15
2017-04-28T06:07:03.045Z,8.16
2017-04-28T06:07:43.930Z,8.18
2017-04-28T06:08:24.844Z,8.24
2017-04-28T06:09:05.707Z,8.24
2017-04-28T06:09:46.566Z,8.2
2017-04-28T06:10:27.438Z,8.31
2017-04-28T06:11:08.315Z,8.42
2017-04-28T06:11:49.199Z,8.38
2017-04-28T06:12:30.076Z,8.41
2017-04-28T06:13:10.962Z,8.34
2017-04-28T06:13:51.856Z,8.46
2017-04-28T06:14:32.745Z,8.48
2017-04-28T06:15:13.627Z,8.53
2017-04-28T06:15:54.495Z,8.52
2017-04-28T06:16:35.382Z,8.55
2017-04-28T06:17:16.254Z,8.63
2017-04-28T06:17:57.147Z,8.61
2017-04-28T06:18:38.042Z,8.69
2017-04-28T06:19:18.914Z,8.67
2017-04-28T06:19:59.785Z,8.67
2017-04-28T06:20:40.658Z,8.64
2017-04-28T06:21:21.548Z,8.64
2017-04-28T06:22:02.433Z,8.63
2017-04-28T06:22:43.315Z,8.66
2017-04-28T06:23:24.203Z,8.63
2017-04-28T06:24:05.073Z,8.81
2017-04-28T06:24:45.946Z,8.79
2017-04-28T06:25:26.828Z,8.81
2017-04-28T06:26:07.699Z,8.82
2017-04-28T06:26:48.578Z,8.84
2017-04-28T06:27:29.473Z,8.89
2017-04-28T06:28:10.345Z,8.95
2017-04-28T06:28:51.225Z,8.92
2017-04-28T06:29:32.095Z,8.88
2017-04-28T06:30:12.975Z,9
2017-04-28T06:30:53.857Z,9.16
2017-04-28T06:31:34.741Z,9.03
2017-04-28T06:32:15.629Z,9.11
2017-04-28T06:32:56.511Z,9.03
2017-04-28T06:33:37.397Z,9.04
2017-04-28T06:34:18.284Z,9.03
2017-04-28T06:34:59.170Z,9.16
2017-04-28T06:35:40.049Z,9.16
2017-04-28T06:36:20.931Z,9.21
2017-04-28T06:37:01.809Z,9.19
2017-04-28T06:37:42.698Z,9.31
2017-04-28T06:38:23.580Z,9.28
2017-04-28T06:39:04.458Z,9.36
2017-04-28T06:39:45.345Z,9.31
2017-04-28T06:40:26.233Z,9.43
2017-04-28T06:41:07.143Z,9.37
2017-04-28T06:41:48.029Z,9.41
2017-04-28T06:42:28.907Z,9.48
2017-04-28T06:43:09.790Z,9.5
2017-04-28T06:43:50.662Z,9.55
2017-04-28T06:44:31.555Z,9.59
2017-04-28T06:45:12.427Z,9.69
2017-04-28T06:45:53.295Z,9.62
2017-04-28T06:46:34.182Z,9.73
2017-04-28T06:47:15.063Z,9.97
2017-04-28T06:47:55.947Z,10.15
2017-04-28T06:48:36.820Z,10.42
2017-04-28T06:49:17.707Z,10.93
2017-04-28T06:49:58.603Z,11.35
2017-04-28T06:50:39.457Z,11.81
2017-04-28T06:51:20.340Z,12
2017-04-28T06:52:01.221Z,11.97
2017-04-28T06:52:42.145Z,11.91
2017-04-28T06:53:23.039Z,11.4
2017-04-28T06:54:03.924Z,11.14
2017-04-28T06:54:44.811Z,11.11
2017-04-28T06:55:25.686Z,11.02
2017-04-28T06:56:06.576Z,11.12
2017-04-28T06:56:47.430Z,11.25
2017-04-28T06:57:28.307Z,11.55
2017-04-28T06:58:09.199Z,11.81
2017-04-28T06:58:50.106Z,12.29
2017-04-28T06:59:30.957Z,12.6
2017-04-28T07:00:11.833Z,13.08
2017-04-28T07:00:52.700Z,13.31
2017-04-28T07:01:33.566Z,13.35
2017-04-28T07:02:14.428Z,13.57
2017-04-28T07:02:55.308Z,13.67
2017-04-28T07:03:36.202Z,13.79
2017-04-28T07:04:17.076Z,14.05
2017-04-28T07:04:57.954Z,13.79
2017-04-28T07:05:38.828Z,13.95
2017-04-28T07:06:19.703Z,13.97
2017-04-28T07:07:00.602Z,14.22
2017-04-28T07:07:41.496Z,13.71
2017-04-28T07:08:22.381Z,14.05
2017-04-28T07:09:03.263Z,14.44
2017-04-28T07:09:44.153Z,14.65
2017-04-28T07:10:25.035Z,14.35
2017-04-28T07:11:05.931Z,14.4
2017-04-28T07:11:46.824Z,14.35
2017-04-28T07:12:27.708Z,14.25
2017-04-28T07:13:08.592Z,14.11
2017-04-28T07:13:49.477Z,14.28
2017-04-28T07:14:30.357Z,14.25
2017-04-28T07:15:11.272Z,14.17
2017-04-28T07:15:52.165Z,14.18
2017-04-28T07:16:33.057Z,14.23
2017-04-28T07:17:13.958Z,14.23
2017-04-28T07:17:54.856Z,14.22
2017-04-28T07:18:35.748Z,14.18
2017-04-28T07:19:16.646Z,14.2
2017-04-28T07:19:57.556Z,13.63
2017-04-28T07:20:38.435Z,13.35
2017-04-28T07:21:19.323Z,13.46
2017-04-28T07:22:00.222Z,13.68
2017-04-28T07:22:41.107Z,13.62
2017-04-28T07:23:22.011Z,13.86
2017-04-28T07:24:02.897Z,13.9
2017-04-28T07:24:43.794Z,13.93
2017-04-28T07:25:24.682Z,13.97
2017-04-28T07:26:05.568Z,14.04
2017-04-28T07:26:46.433Z,14.3
2017-04-28T07:27:27.312Z,14.3
2017-04-28T07:28:08.201Z,14.48
2017-04-28T07:28:49.101Z,14.44
2017-04-28T07:29:29.995Z,14.47
2017-04-28T07:30:10.893Z,14.45
2017-04-28T07:30:51.761Z,14.5
2017-04-28T07:31:32.665Z,14.59
2017-04-28T07:32:13.547Z,14.6
2017-04-28T07:32:54.448Z,14.79
2017-04-28T07:33:35.344Z,14.65
2017-04-28T07:34:16.244Z,14.66
2017-04-28T07:34:57.145Z,14.91
2017-04-28T07:35:38.043Z,14.81
2017-04-28T07:36:18.979Z,14.85
2017-04-28T07:36:59.883Z,15.04
2017-04-28T07:37:40.790Z,14.89
2017-04-28T07:38:21.704Z,14.72
2017-04-28T07:39:02.601Z,14.82
2017-04-28T07:39:43.509Z,14.81
2017-04-28T07:40:24.402Z,14.91
2017-04-28T07:41:05.284Z,14.78
2017-04-28T07:41:46.177Z,14.89
2017-04-28T07:42:27.080Z,15.06
2017-04-28T07:43:07.969Z,14.86
2017-04-28T07:43:48.863Z,14.82
2017-04-28T07:44:29.768Z,14.82
2017-04-28T07:45:10.670Z,14.96
2017-04-28T07:45:51.568Z,15.15
2017-04-28T07:46:32.453Z,15.35
2017-04-28T07:47:13.355Z,15.25
2017-04-28T07:47:54.255Z,15.35
2017-04-28T07:48:35.157Z,15.37
2017-04-28T07:49:16.062Z,15.4
2017-04-28T07:49:57.003Z,15.51
2017-04-28T07:50:37.906Z,15.42
2017-04-28T07:51:18.801Z,15.18
2017-04-28T07:51:59.710Z,15.09
2017-04-28T07:52:40.611Z,15.22
2017-04-28T07:53:21.514Z,15.37
2017-04-28T07:54:02.404Z,15.42
2017-04-28T07:54:43.290Z,15.47
2017-04-28T07:55:24.192Z,15.61
2017-04-28T07:56:05.103Z,15.72
2017-04-28T07:56:45.989Z,15.72
2017-04-28T07:57:26.901Z,15.73
2017-04-28T07:58:07.799Z,15.67
2017-04-28T07:58:48.713Z,15.83
2017-04-28T07:59:29.618Z,15.62
2017-04-28T08:00:10.512Z,15.72
2017-04-28T08:00:51.412Z,15.57
2017-04-28T08:01:32.306Z,15.46
2017-04-28T08:02:13.205Z,15.42
2017-04-28T08:02:54.116Z,15.55
2017-04-28T08:03:35.026Z,15.75
2017-04-28T08:04:15.932Z,15.79
2017-04-28T08:04:56.828Z,15.73
2017-04-28T08:05:37.724Z,15.77
2017-04-28T08:06:18.627Z,15.73
2017-04-28T08:06:59.523Z,15.62
2017-04-28T08:07:40.430Z,15.59
2017-04-28T08:08:21.325Z,15.77
2017-04-28T08:09:02.223Z,15.92
2017-04-28T08:09:43.137Z,16
2017-04-28T08:10:24.039Z,15.91
2017-04-28T08:11:04.946Z,15.98
2017-04-28T08:11:45.840Z,16.15
2017-04-28T08:12:26.745Z,16.49
2017-04-28T08:13:07.637Z,16.53
2017-04-28T08:13:48.531Z,16.49
2017-04-28T08:14:29.433Z,16.58
2017-04-28T08:15:10.328Z,16.61
2017-04-28T08:15:51.229Z,16.35
2017-04-28T08:16:32.130Z,16.29
2017-04-28T08:17:13.009Z,16.33
2017-04-28T08:17:53.917Z,16.47
2017-04-28T08:18:34.819Z,16.49
2017-04-28T08:19:15.725Z,16.46
2017-04-28T08:19:56.653Z,16.08
2017-04-28T08:20:37.555Z,15.88
2017-04-28T08:21:18.454Z,15.46
2017-04-28T08:21:59.343Z,15.42
2017-04-28T08:22:40.244Z,15.43
2017-04-28T08:23:21.159Z,15.09
2017-04-28T08:24:02.063Z,14.96
2017-04-28T08:24:42.949Z,14.89
2017-04-28T08:25:23.833Z,15
2017-04-28T08:26:04.734Z,15.04
2017-04-28T08:26:45.624Z,15.1
2017-04-28T08:27:26.509Z,15.22
2017-04-28T08:28:07.401Z,15.11
2017-04-28T08:28:48.286Z,15.02
2017-04-28T08:29:29.160Z,14.79
2017-04-28T08:30:10.040Z,14.84
2017-04-28T08:30:50.931Z,14.88
2017-04-28T08:31:31.830Z,15
2017-04-28T08:32:12.714Z,15.03
2017-04-28T08:32:53.604Z,15.1
2017-04-28T08:33:34.492Z,15.14
2017-04-28T08:34:15.374Z,15
2017-04-28T08:34:56.260Z,14.96
2017-04-28T08:35:37.159Z,14.82
2017-04-28T08:36:18.036Z,14.85
2017-04-28T08:36:58.905Z,14.89
2017-04-28T08:37:39.788Z,14.89
2017-04-28T08:38:20.672Z,14.73
2017-04-28T08:39:01.574Z,14.82
2017-04-28T08:39:42.460Z,14.53
2017-04-28T08:40:23.363Z,14.25
2017-04-28T08:41:04.248Z,14.28
2017-04-28T08:41:45.130Z,14.43
2017-04-28T08:42:26.024Z,14.47
2017-04-28T08:43:06.907Z,14.5
2017-04-28T08:43:47.795Z,14.5
2017-04-28T08:44:28.684Z,14.32
2017-04-28T08:45:09.576Z,14.36
2017-04-28T08:45:50.470Z,14.5
2017-04-28T08:46:31.334Z,14.36
2017-04-28T08:47:12.233Z,14.15
2017-04-28T08:47:53.114Z,13.96
2017-04-28T08:48:33.995Z,13.9
2017-04-28T08:49:14.881Z,13.78
2017-04-28T08:49:55.771Z,13.85
2017-04-28T08:50:36.672Z,13.6
2017-04-28T08:51:17.547Z,13.71
2017-04-28T08:51:58.443Z,13.7
2017-04-28T08:52:39.329Z,13.5
2017-04-28T08:53:20.234Z,13.52
2017-04-28T08:54:01.110Z,13.52
2017-04-28T08:54:41.997Z,13.6
2017-04-28T08:55:22.858Z,13.63
2017-04-28T08:56:03.736Z,13.65
2017-04-28T08:56:44.708Z,13.68
2017-04-28T08:57:25.581Z,13.62
2017-04-28T08:58:06.511Z,13.7
2017-04-28T08:58:47.393Z,13.68
2017-04-28T08:59:28.258Z,13.77
2017-04-28T09:00:09.156Z,13.77
2017-04-28T09:00:50.028Z,13.7
2017-04-28T09:01:30.923Z,13.72
2017-04-28T09:02:11.815Z,13.67
2017-04-28T09:02:52.699Z,13.57
2017-04-28T09:03:33.623Z,13.54
2017-04-28T09:04:14.519Z,13.47
2017-04-28T09:04:55.408Z,13.53
2017-04-28T09:05:36.275Z,13.54
2017-04-28T09:06:17.166Z,13.38